Time;durP1;ratioP1;P1;durP2;ratioP2;P2;SDS_P1;SDS_P2;PMS_P1;PMS_P2;Temp;Humidity;BMP_temperature;BMP_pressure;BME280_temperature;BME280_humidity;BME280_pressure;Samples;Min_cycle;Max_cycle;Signal;HPM_P1;HPM_P2
2023/12/12 00:00:27;;;;;;;0.20;0.20;;;;;;;;;;6294792;28;20027;-77
2023/12/12 00:03:28;;;;;;;0.20;0.20;;;;;;;;;;6294996;28;20040;-77
2023/12/12 00:06:31;;;;;;;0.20;0.20;;;;;;;;;;6296107;28;20482;-77
2023/12/12 00:09:31;;;;;;;0.20;0.20;;;;;;;;;;6277256;28;20651;-77
2023/12/12 00:12:31;;;;;;;0.20;0.20;;;;;;;;;;6281154;28;20025;-78
2023/12/12 00:15:32;;;;;;;0.20;0.20;;;;;;;;;;6309092;28;20036;-78
2023/12/12 00:18:35;;;;;;;0.10;0.10;;;;;;;;;;6294895;28;20028;-77
2023/12/12 00:21:35;;;;;;;0.20;0.20;;;;;;;;;;6294791;28;20144;-78
2023/12/12 00:24:36;;;;;;;0.20;0.20;;;;;;;;;;6276619;28;20414;-78
2023/12/12 00:27:36;;;;;;;0.20;0.20;;;;;;;;;;6294161;28;20024;-78
2023/12/12 00:30:36;;;;;;;0.20;0.20;;;;;;;;;;6277891;28;20028;-77
2023/12/12 00:33:36;;;;;;;0.20;0.20;;;;;;;;;;6306496;28;20551;-76
2023/12/12 00:36:37;;;;;;;0.20;0.20;;;;;;;;;;6294050;28;20032;-77
2023/12/12 00:39:38;;;;;;;0.20;0.20;;;;;;;;;;6294309;28;20024;-75
2023/12/12 00:42:38;;;;;;;0.10;0.10;;;;;;;;;;6262261;28;20028;-75
2023/12/12 00:45:38;;;;;;;0.20;0.20;;;;;;;;;;6294353;28;20167;-74
2023/12/12 00:48:39;;;;;;;0.20;0.20;;;;;;;;;;6293317;28;20016;-77
2023/12/12 00:51:39;;;;;;;0.20;0.20;;;;;;;;;;6294151;28;20025;-78
2023/12/12 00:54:39;;;;;;;0.20;0.20;;;;;;;;;;6293440;28;20028;-79
2023/12/12 00:57:40;;;;;;;0.20;0.20;;;;;;;;;;6293153;28;20024;-80
2023/12/12 01:00:40;;;;;;;0.20;0.20;;;;;;;;;;6294053;28;20387;-80
2023/12/12 01:03:40;;;;;;;0.20;0.20;;;;;;;;;;6261526;28;20041;-80
2023/12/12 01:06:41;;;;;;;0.20;0.20;;;;;;;;;;6305874;28;20020;-81
2023/12/12 01:09:41;;;;;;;0.20;0.20;;;;;;;;;;6294065;28;20016;-81
2023/12/12 01:12:41;;;;;;;0.20;0.20;;;;;;;;;;6292972;28;20051;-81
2023/12/12 01:15:41;;;;;;;0.20;0.20;;;;;;;;;;6293174;28;20025;-79
2023/12/12 01:18:42;;;;;;;0.20;0.20;;;;;;;;;;6292752;28;20020;-80
2023/12/12 01:21:42;;;;;;;0.20;0.20;;;;;;;;;;6293988;28;20024;-78
2023/12/12 01:24:42;;;;;;;0.20;0.20;;;;;;;;;;6274760;28;20031;-78
2023/12/12 01:27:43;;;;;;;0.20;0.20;;;;;;;;;;6292874;28;20012;-79
2023/12/12 01:30:44;;;;;;;0.20;0.20;;;;;;;;;;6277701;28;20492;-77
2023/12/12 01:33:45;;;;;;;0.20;0.20;;;;;;;;;;6285713;28;20032;-80
2023/12/12 01:36:45;;;;;;;0.20;0.20;;;;;;;;;;6274696;28;20266;-80
2023/12/12 01:39:45;;;;;;;0.20;0.20;;;;;;;;;;6282275;28;20020;-80
2023/12/12 01:42:46;;;;;;;0.20;0.20;;;;;;;;;;6292613;28;20131;-79
2023/12/12 01:45:46;;;;;;;0.20;0.20;;;;;;;;;;6292734;28;20032;-80
2023/12/12 01:48:47;;;;;;;0.20;0.20;;;;;;;;;;6291201;28;20017;-79
2023/12/12 01:51:47;;;;;;;0.20;0.20;;;;;;;;;;6300302;28;20078;-80
2023/12/12 01:54:49;;;;;;;0.20;0.20;;;;;;;;;;6285908;28;20024;-80
2023/12/12 01:57:49;;;;;;;0.20;0.20;;;;;;;;;;6274521;28;20075;-80
2023/12/12 02:00:50;;;;;;;0.10;0.10;;;;;;;;;;6292562;28;20044;-80
2023/12/12 02:03:52;;;;;;;0.20;0.20;;;;;;;;;;6292225;28;20525;-80
2023/12/12 02:06:54;;;;;;;0.20;0.20;;;;;;;;;;6278414;28;20021;-80
2023/12/12 02:09:55;;;;;;;0.20;0.20;;;;;;;;;;6272139;28;20040;-80
2023/12/12 02:12:55;;;;;;;0.20;0.20;;;;;;;;;;6292251;28;20032;-80
2023/12/12 02:15:55;;;;;;;0.20;0.20;;;;;;;;;;6299412;28;20056;-79
2023/12/12 02:18:56;;;;;;;0.20;0.20;;;;;;;;;;6292165;28;20479;-79
2023/12/12 02:21:56;;;;;;;0.20;0.20;;;;;;;;;;6294175;28;20397;-79
2023/12/12 02:24:56;;;;;;;0.20;0.20;;;;;;;;;;6304987;28;20021;-80
2023/12/12 02:27:58;;;;;;;0.20;0.20;;;;;;;;;;6276473;28;20017;-80
2023/12/12 02:30:58;;;;;;;0.20;0.20;;;;;;;;;;6295252;28;20066;-79
2023/12/12 02:33:59;;;;;;;0.20;0.20;;;;;;;;;;6296649;28;20036;-83
2023/12/12 02:36:59;;;;;;;0.20;0.20;;;;;;;;;;6291779;28;20031;-84
2023/12/12 02:39:59;;;;;;;0.20;0.20;;;;;;;;;;6291369;28;20033;-84
2023/12/12 02:43:00;;;;;;;0.20;0.20;;;;;;;;;;6283090;28;20031;-84
2023/12/12 02:46:00;;;;;;;0.20;0.20;;;;;;;;;;6291315;28;20024;-85
2023/12/12 02:49:00;;;;;;;0.20;0.20;;;;;;;;;;6291637;28;20584;-86
2023/12/12 02:52:00;;;;;;;0.20;0.20;;;;;;;;;;6283747;28;20487;-87
2023/12/12 02:55:01;;;;;;;0.20;0.20;;;;;;;;;;6280406;28;20025;-86
2023/12/12 02:58:01;;;;;;;0.20;0.20;;;;;;;;;;6267639;28;20029;-86
2023/12/12 03:01:01;;;;;;;0.20;0.20;;;;;;;;;;6291834;28;20029;-87
2023/12/12 03:04:02;;;;;;;0.20;0.20;;;;;;;;;;6289770;28;20094;-85
2023/12/12 03:07:02;;;;;;;0.20;0.20;;;;;;;;;;6291164;28;20074;-85
2023/12/12 03:10:03;;;;;;;0.20;0.20;;;;;;;;;;6272918;28;20027;-88
2023/12/12 03:13:03;;;;;;;0.20;0.20;;;;;;;;;;6285796;28;20024;-88
2023/12/12 03:16:03;;;;;;;0.20;0.20;;;;;;;;;;6296715;28;20024;-88
2023/12/12 03:19:04;;;;;;;0.20;0.20;;;;;;;;;;6296024;28;20024;-88
2023/12/12 03:22:04;;;;;;;0.20;0.20;;;;;;;;;;6276762;28;20581;-88
2023/12/12 03:25:05;;;;;;;0.20;0.20;;;;;;;;;;6295904;28;20387;-88
2023/12/12 03:28:05;;;;;;;0.20;0.20;;;;;;;;;;6296089;28;20028;-86
2023/12/12 03:31:05;;;;;;;0.20;0.20;;;;;;;;;;6295646;28;20498;-86
2023/12/12 03:34:06;;;;;;;0.20;0.20;;;;;;;;;;6295136;28;20058;-87
2023/12/12 03:37:06;;;;;;;0.20;0.20;;;;;;;;;;6277870;28;20135;-86
2023/12/12 03:40:07;;;;;;;0.20;0.20;;;;;;;;;;6295898;28;20040;-85
2023/12/12 03:43:07;;;;;;;0.20;0.20;;;;;;;;;;6295168;28;20033;-85
2023/12/12 03:46:14;;;;;;;0.20;0.20;;;;;;;;;;6294547;28;20023;-85
2023/12/12 03:49:14;;;;;;;0.20;0.20;;;;;;;;;;6295204;28;20059;-84
2023/12/12 03:52:14;;;;;;;0.20;0.20;;;;;;;;;;6295534;28;20368;-81
2023/12/12 03:55:14;;;;;;;0.20;0.20;;;;;;;;;;6295312;28;20102;-81
2023/12/12 03:58:15;;;;;;;0.20;0.20;;;;;;;;;;6295073;28;20055;-81
2023/12/12 04:01:15;;;;;;;0.20;0.20;;;;;;;;;;6294733;28;20044;-81
2023/12/12 04:04:18;;;;;;;0.20;0.20;;;;;;;;;;6294226;28;20453;-81
2023/12/12 04:07:18;;;;;;;0.20;0.20;;;;;;;;;;6295442;28;20024;-81
2023/12/12 04:10:19;;;;;;;0.20;0.20;;;;;;;;;;6294809;28;20427;-81
2023/12/12 04:13:19;;;;;;;0.20;0.20;;;;;;;;;;6294655;28;20177;-80
2023/12/12 04:16:19;;;;;;;0.20;0.20;;;;;;;;;;6276037;28;20025;-80
2023/12/12 04:19:21;;;;;;;0.20;0.20;;;;;;;;;;6283050;28;20053;-80
2023/12/12 04:22:21;;;;;;;0.20;0.20;;;;;;;;;;6300316;28;20029;-83
2023/12/12 04:25:23;;;;;;;0.20;0.20;;;;;;;;;;6294133;28;20020;-83
2023/12/12 04:28:23;;;;;;;0.20;0.20;;;;;;;;;;6276129;28;20056;-83
2023/12/12 04:31:23;;;;;;;0.20;0.20;;;;;;;;;;6294278;28;20021;-83
2023/12/12 04:34:23;;;;;;;0.20;0.20;;;;;;;;;;6293701;28;20029;-84
2023/12/12 04:37:23;;;;;;;0.20;0.20;;;;;;;;;;6294291;28;20024;-83
2023/12/12 04:40:27;;;;;;;0.20;0.20;;;;;;;;;;6308390;28;20058;-83
2023/12/12 04:43:27;;;;;;;0.20;0.20;;;;;;;;;;6276524;28;20016;-83
2023/12/12 04:46:27;;;;;;;0.20;0.20;;;;;;;;;;6293844;28;20017;-83
2023/12/12 04:49:27;;;;;;;0.20;0.20;;;;;;;;;;6293513;28;20024;-83
2023/12/12 04:52:28;;;;;;;0.20;0.20;;;;;;;;;;6293680;28;20107;-84
2023/12/12 04:55:28;;;;;;;0.10;0.10;;;;;;;;;;6294298;28;20453;-84
2023/12/12 04:58:28;;;;;;;0.20;0.20;;;;;;;;;;6293626;28;20437;-84
2023/12/12 05:01:29;;;;;;;0.20;0.20;;;;;;;;;;6291465;28;20376;-84
2023/12/12 05:04:29;;;;;;;0.20;0.20;;;;;;;;;;6293504;28;20123;-80
2023/12/12 05:07:29;;;;;;;0.20;0.20;;;;;;;;;;6293869;28;20130;-80
2023/12/12 05:10:29;;;;;;;0.20;0.20;;;;;;;;;;6283617;28;20047;-80
2023/12/12 05:13:30;;;;;;;0.20;0.20;;;;;;;;;;6274626;28;20036;-81
2023/12/12 05:16:30;;;;;;;0.20;0.20;;;;;;;;;;6292945;28;20023;-80
2023/12/12 05:19:30;;;;;;;0.20;0.20;;;;;;;;;;6275093;28;20025;-81
2023/12/12 05:22:31;;;;;;;0.20;0.20;;;;;;;;;;6292785;28;20056;-81
2023/12/12 05:25:31;;;;;;;0.20;0.20;;;;;;;;;;6293602;28;20025;-80
2023/12/12 05:28:31;;;;;;;0.10;0.10;;;;;;;;;;6274407;28;20483;-80
2023/12/12 05:31:32;;;;;;;0.20;0.20;;;;;;;;;;6293725;28;20397;-80
2023/12/12 05:34:32;;;;;;;0.20;0.20;;;;;;;;;;6292087;28;20364;-80
2023/12/12 05:37:32;;;;;;;0.20;0.20;;;;;;;;;;6292842;28;20459;-80
2023/12/12 05:40:33;;;;;;;0.20;0.20;;;;;;;;;;6292148;28;20017;-80
2023/12/12 05:43:33;;;;;;;0.20;0.20;;;;;;;;;;6284833;28;20043;-80
2023/12/12 05:46:34;;;;;;;0.20;0.20;;;;;;;;;;6292650;28;20013;-80
2023/12/12 05:49:34;;;;;;;0.20;0.20;;;;;;;;;;6291467;28;20397;-80
2023/12/12 05:52:34;;;;;;;0.20;0.20;;;;;;;;;;6296238;28;20462;-81
2023/12/12 05:55:34;;;;;;;0.20;0.20;;;;;;;;;;6289531;28;20051;-80
2023/12/12 05:58:35;;;;;;;0.20;0.20;;;;;;;;;;6267957;28;20366;-80
2023/12/12 06:01:35;;;;;;;0.20;0.20;;;;;;;;;;6297470;28;20123;-80
2023/12/12 06:04:35;;;;;;;0.20;0.20;;;;;;;;;;6292536;28;20083;-80
2023/12/12 06:07:36;;;;;;;0.20;0.20;;;;;;;;;;6285084;28;20028;-81
2023/12/12 06:10:37;;;;;;;0.20;0.20;;;;;;;;;;6278429;28;20497;-80
2023/12/12 06:13:37;;;;;;;0.20;0.20;;;;;;;;;;6303340;28;20032;-82
2023/12/12 06:16:38;;;;;;;0.10;0.10;;;;;;;;;;6291808;28;20043;-82
2023/12/12 06:19:38;;;;;;;0.17;0.17;;;;;;;;;;6291983;28;20414;-82
2023/12/12 06:22:38;;;;;;;0.20;0.20;;;;;;;;;;6292178;28;20027;-87
2023/12/12 06:25:38;;;;;;;0.17;0.17;;;;;;;;;;6292014;28;20099;-86
2023/12/12 06:28:39;;;;;;;0.10;0.10;;;;;;;;;;6291081;28;20390;-86
2023/12/12 06:31:39;;;;;;;0.20;0.20;;;;;;;;;;6283242;28;20028;-87
2023/12/12 06:34:39;;;;;;;0.20;0.20;;;;;;;;;;6293874;28;20021;-88
2023/12/12 06:37:40;;;;;;;0.20;0.20;;;;;;;;;;6285630;28;20475;-87
2023/12/12 06:40:40;;;;;;;0.20;0.20;;;;;;;;;;6291987;28;20033;-86
2023/12/12 06:43:42;;;;;;;0.20;0.20;;;;;;;;;;6302043;28;20391;-86
2023/12/12 06:46:43;;;;;;;0.20;0.20;;;;;;;;;;6302482;28;20034;-87
2023/12/12 06:49:43;;;;;;;0.20;0.20;;;;;;;;;;6301079;28;20021;-85
2023/12/12 06:52:43;;;;;;;0.20;0.20;;;;;;;;;;6300454;28;20494;-86
2023/12/12 06:55:43;;;;;;;0.20;0.20;;;;;;;;;;6300141;28;20056;-87
2023/12/12 06:58:44;;;;;;;0.20;0.20;;;;;;;;;;6281575;28;20178;-87
2023/12/12 07:01:44;;;;;;;0.20;0.20;;;;;;;;;;6290548;28;20025;-83
2023/12/12 07:04:44;;;;;;;0.20;0.20;;;;;;;;;;6299060;28;20551;-84
2023/12/12 07:07:45;;;;;;;0.20;0.20;;;;;;;;;;6295432;28;20024;-83
2023/12/12 07:10:45;;;;;;;0.20;0.20;;;;;;;;;;6298201;28;20013;-83
2023/12/12 07:13:46;;;;;;;0.20;0.20;;;;;;;;;;6286749;28;22499;-87
2023/12/12 07:16:46;;;;;;;0.20;0.20;;;;;;;;;;6298726;28;20111;-86
2023/12/12 07:19:46;;;;;;;0.20;0.20;;;;;;;;;;6300777;28;20021;-88
2023/12/12 07:22:47;;;;;;;0.20;0.20;;;;;;;;;;6295846;28;20090;-88
2023/12/12 07:25:47;;;;;;;0.20;0.20;;;;;;;;;;6301728;28;20028;-87
2023/12/12 07:28:47;;;;;;;0.20;0.20;;;;;;;;;;6302652;28;20059;-87
2023/12/12 07:31:50;;;;;;;0.20;0.20;;;;;;;;;;6306258;28;20207;-81
2023/12/12 07:34:50;;;;;;;0.20;0.20;;;;;;;;;;6293447;28;20107;-81
2023/12/12 07:37:51;;;;;;;0.20;0.20;;;;;;;;;;6299293;28;20024;-81
2023/12/12 07:40:51;;;;;;;0.20;0.20;;;;;;;;;;6298718;28;20072;-81
2023/12/12 07:43:51;;;;;;;0.20;0.20;;;;;;;;;;6293066;28;20021;-81
2023/12/12 07:46:51;;;;;;;0.20;0.20;;;;;;;;;;6305482;28;20024;-81
2023/12/12 07:49:52;;;;;;;0.20;0.20;;;;;;;;;;6301116;28;20066;-81
2023/12/12 07:52:53;;;;;;;0.20;0.20;;;;;;;;;;6298285;28;20048;-86
2023/12/12 07:55:54;;;;;;;0.20;0.20;;;;;;;;;;6281621;28;20439;-88
2023/12/12 07:58:54;;;;;;;0.20;0.20;;;;;;;;;;6304976;28;20034;-89
2023/12/12 08:01:54;;;;;;;0.20;0.20;;;;;;;;;;6282626;28;20086;-86
2023/12/12 08:04:54;;;;;;;0.20;0.20;;;;;;;;;;6295572;28;20045;-87
2023/12/12 08:07:55;;;;;;;0.20;0.20;;;;;;;;;;6306314;28;20048;-86
2023/12/12 08:10:55;;;;;;;0.20;0.20;;;;;;;;;;6295440;28;20050;-87
2023/12/12 08:13:55;;;;;;;0.20;0.20;;;;;;;;;;6291831;28;20475;-87
2023/12/12 08:16:56;;;;;;;0.20;0.20;;;;;;;;;;6295526;28;20471;-86
2023/12/12 08:19:56;;;;;;;0.20;0.20;;;;;;;;;;6275974;28;20025;-86
2023/12/12 08:22:57;;;;;;;0.20;0.20;;;;;;;;;;6296053;28;20657;-86
2023/12/12 08:25:58;;;;;;;0.20;0.20;;;;;;;;;;6294145;28;20047;-86
2023/12/12 08:28:58;;;;;;;0.20;0.20;;;;;;;;;;6294311;28;20016;-88
2023/12/12 08:31:59;;;;;;;0.20;0.20;;;;;;;;;;6289985;28;20070;-86
2023/12/12 08:34:59;;;;;;;0.20;0.20;;;;;;;;;;6275765;28;20032;-83
2023/12/12 08:37:59;;;;;;;0.20;0.20;;;;;;;;;;6294023;28;20070;-84
2023/12/12 08:40:59;;;;;;;0.20;0.20;;;;;;;;;;6294333;28;20024;-85
2023/12/12 08:44:00;;;;;;;0.10;0.10;;;;;;;;;;6294824;28;20097;-84
2023/12/12 08:47:00;;;;;;;0.20;0.20;;;;;;;;;;6290356;28;20024;-87
2023/12/12 08:50:00;;;;;;;0.20;0.20;;;;;;;;;;6298996;28;20027;-84
2023/12/12 08:53:02;;;;;;;0.20;0.20;;;;;;;;;;6284349;28;20107;-79
2023/12/12 08:56:04;;;;;;;0.20;0.20;;;;;;;;;;6302624;28;20088;-79
2023/12/12 08:59:04;;;;;;;0.20;0.20;;;;;;;;;;6303888;28;20051;-79
2023/12/12 09:02:04;;;;;;;0.20;0.20;;;;;;;;;;6293141;28;20069;-84
2023/12/12 09:05:06;;;;;;;0.20;0.20;;;;;;;;;;6293540;28;20403;-84
2023/12/12 09:08:06;;;;;;;0.20;0.20;;;;;;;;;;6293255;28;20022;-85
2023/12/12 09:11:08;;;;;;;0.20;0.20;;;;;;;;;;6292663;28;20406;-84
2023/12/12 09:14:08;;;;;;;0.20;0.20;;;;;;;;;;6296669;28;20021;-85
2023/12/12 09:17:08;;;;;;;0.20;0.20;;;;;;;;;;6303628;28;20048;-86
2023/12/12 09:20:09;;;;;;;0.20;0.20;;;;;;;;;;6281517;28;20390;-86
2023/12/12 09:23:09;;;;;;;0.20;0.20;;;;;;;;;;6290910;28;20028;-88
2023/12/12 09:26:13;;;;;;;0.20;0.20;;;;;;;;;;6292620;28;20024;-86
2023/12/12 09:29:14;;;;;;;0.20;0.20;;;;;;;;;;6292859;28;20025;-88
2023/12/12 09:32:14;;;;;;;0.20;0.20;;;;;;;;;;6288536;28;20111;-86
2023/12/12 09:35:15;;;;;;;0.20;0.20;;;;;;;;;;6306197;28;20474;-87
2023/12/12 09:38:15;;;;;;;0.20;0.20;;;;;;;;;;6301487;28;20056;-88
2023/12/12 09:41:24;;;;;;;0.20;0.20;;;;;;;;;;6292899;28;20836;-88
2023/12/12 09:44:27;;;;;;;0.20;0.20;;;;;;;;;;6274567;28;20021;-89
2023/12/12 09:47:28;;;;;;;0.20;0.20;;;;;;;;;;6293843;28;20029;-89
2023/12/12 09:50:30;;;;;;;0.20;0.20;;;;;;;;;;6294275;28;20584;-89
2023/12/12 09:53:32;;;;;;;0.20;0.20;;;;;;;;;;6275719;28;20027;-89
2023/12/12 09:56:37;;;;;;;0.20;0.20;;;;;;;;;;6277086;28;20046;-90
2023/12/12 09:59:39;;;;;;;0.10;0.10;;;;;;;;;;6299212;28;20107;-88
2023/12/12 10:02:40;;;;;;;0.20;0.20;;;;;;;;;;6295791;28;20577;-83
2023/12/12 10:05:41;;;;;;;0.20;0.20;;;;;;;;;;6292078;28;20051;-83
2023/12/12 10:08:41;;;;;;;0.20;0.20;;;;;;;;;;6248944;28;20163;-83
2023/12/12 10:11:41;;;;;;;0.10;0.10;;;;;;;;;;6286883;28;20024;-83
2023/12/12 10:14:47;;;;;;;0.20;0.20;;;;;;;;;;6292508;28;20048;-84
2023/12/12 10:17:47;;;;;;;0.20;0.20;;;;;;;;;;6292486;28;20068;-84
2023/12/12 10:20:47;;;;;;;0.20;0.20;;;;;;;;;;6288991;28;20390;-84
2023/12/12 10:23:49;;;;;;;0.20;0.20;;;;;;;;;;6287513;28;20798;-84
2023/12/12 10:26:50;;;;;;;0.20;0.20;;;;;;;;;;6273398;28;20020;-84
2023/12/12 10:29:50;;;;;;;0.20;0.20;;;;;;;;;;6292633;28;20433;-84
2023/12/12 10:32:51;;;;;;;0.20;0.20;;;;;;;;;;6292500;28;20030;-84
2023/12/12 10:35:52;;;;;;;0.20;0.20;;;;;;;;;;6291894;28;20017;-84
2023/12/12 10:38:52;;;;;;;0.20;0.20;;;;;;;;;;6291555;28;20032;-84
2023/12/12 10:41:55;;;;;;;0.20;0.20;;;;;;;;;;6292160;28;20025;-84
2023/12/12 10:44:58;;;;;;;0.20;0.20;;;;;;;;;;6273247;28;20020;-85
2023/12/12 10:48:00;;;;;;;0.15;0.15;;;;;;;;;;6291147;28;20017;-84
2023/12/12 10:51:02;;;;;;;0.20;0.20;;;;;;;;;;6290920;28;20024;-83
2023/12/12 10:54:02;;;;;;;;;;;;;;;;;;6273581;28;20016;-83
2023/12/12 10:57:04;;;;;;;0.20;0.20;;;;;;;;;;6291706;28;19954;-83
2023/12/12 11:00:11;;;;;;;0.20;0.20;;;;;;;;;;6273662;28;20020;-83
2023/12/12 11:03:11;;;;;;;0.20;0.20;;;;;;;;;;6290707;28;20099;-83
2023/12/12 11:06:11;;;;;;;0.20;0.20;;;;;;;;;;6291492;28;20031;-83
2023/12/12 11:09:13;;;;;;;0.20;0.20;;;;;;;;;;6291204;28;20452;-83
2023/12/12 11:12:13;;;;;;;0.13;0.13;;;;;;;;;;6290689;28;20104;-83
2023/12/12 11:15:14;;;;;;;0.20;0.20;;;;;;;;;;6291659;28;20035;-83
2023/12/12 11:18:15;;;;;;;0.20;0.20;;;;;;;;;;6291141;28;20494;-83
2023/12/12 11:21:35;;;;;;;0.20;0.20;;;;;;;;;;6292882;28;20099;-83
2023/12/12 11:24:54;;;;;;;0.10;0.10;;;;;;;;;;6291824;28;20073;-83
2023/12/12 11:27:57;;;;;;;0.10;0.10;;;;;;;;;;6272593;28;20021;-82
2023/12/12 11:31:00;;;;;;;0.20;0.20;;;;;;;;;;6290662;28;20024;-82
2023/12/12 11:34:07;;;;;;;0.20;0.20;;;;;;;;;;6298352;28;20059;-83
2023/12/12 11:37:08;;;;;;;0.20;0.20;;;;;;;;;;6294690;28;20036;-82
2023/12/12 11:40:10;;;;;;;0.20;0.20;;;;;;;;;;6296454;28;20029;-83
2023/12/12 11:43:20;;;;;;;0.20;0.20;;;;;;;;;;6285945;28;20039;-82
2023/12/12 11:46:21;;;;;;;0.10;0.10;;;;;;;;;;6306008;28;20581;-83
2023/12/12 11:49:22;;;;;;;0.10;0.10;;;;;;;;;;6291712;28;20021;-83
2023/12/12 11:52:43;;;;;;;0.10;0.10;;;;;;;;;;6294693;28;20532;-83
2023/12/12 11:55:45;;;;;;;0.10;0.10;;;;;;;;;;6277567;28;20036;-83
2023/12/12 11:58:45;;;;;;;0.20;0.20;;;;;;;;;;6282410;28;20505;-83
2023/12/12 12:01:45;;;;;;;0.20;0.20;;;;;;;;;;6295422;28;20028;-83
2023/12/12 12:04:45;;;;;;;0.10;0.10;;;;;;;;;;6287239;28;20525;-83
2023/12/12 12:07:46;;;;;;;0.20;0.20;;;;;;;;;;6307513;28;20024;-83
2023/12/12 12:10:56;;;;;;;0.10;0.10;;;;;;;;;;6295611;28;20096;-83
2023/12/12 12:13:56;;;;;;;0.10;0.10;;;;;;;;;;6303570;28;20035;-83
2023/12/12 12:16:58;;;;;;;0.10;0.10;;;;;;;;;;6296602;28;20024;-82
2023/12/12 12:19:59;;;;;;;0.20;0.20;;;;;;;;;;6294722;28;20021;-82
2023/12/12 12:22:59;;;;;;;0.20;0.20;;;;;;;;;;6297515;28;20124;-83
2023/12/12 12:25:59;;;;;;;0.20;0.20;;;;;;;;;;6278239;28;20021;-83
2023/12/12 12:29:07;;;;;;;0.10;0.10;;;;;;;;;;6303504;28;20371;-82
2023/12/12 12:32:11;;;;;;;0.20;0.20;;;;;;;;;;6309093;28;20050;-88
2023/12/12 12:35:11;;;;;;;0.10;0.10;;;;;;;;;;6287175;28;20072;-89
2023/12/12 12:38:25;;;;;;;0.10;0.10;;;;;;;;;;6298243;28;20088;-88
2023/12/12 12:41:25;;;;;;;0.20;0.20;;;;;;;;;;6315080;28;20033;-88
2023/12/12 12:44:31;;;;;;;0.10;0.10;;;;;;;;;;6326089;28;20527;-89
2023/12/12 12:47:32;;;;;;;0.20;0.20;;;;;;;;;;6315811;28;20022;-89
2023/12/12 12:50:32;;;;;;;0.13;0.13;;;;;;;;;;6306328;28;20029;-88
2023/12/12 12:53:33;;;;;;;0.10;0.10;;;;;;;;;;6280928;28;20289;-82
2023/12/12 12:56:33;;;;;;;0.10;0.10;;;;;;;;;;6294169;28;20031;-81
2023/12/12 12:59:34;;;;;;;0.20;0.20;;;;;;;;;;6301279;28;20032;-81
2023/12/12 13:02:34;;;;;;;0.20;0.20;;;;;;;;;;6301891;28;20050;-81
2023/12/12 13:05:34;;;;;;;0.10;0.10;;;;;;;;;;6305369;28;20511;-82
2023/12/12 13:08:35;;;;;;;0.20;0.20;;;;;;;;;;6275369;28;20470;-81
2023/12/12 13:11:36;;;;;;;0.13;0.13;;;;;;;;;;6292754;28;20024;-82
2023/12/12 13:14:36;;;;;;;0.10;0.10;;;;;;;;;;6280913;28;20032;-82
2023/12/12 13:17:37;;;;;;;0.10;0.10;;;;;;;;;;6289385;28;20486;-82
2023/12/12 13:20:37;;;;;;;0.20;0.20;;;;;;;;;;6276957;28;20508;-82
2023/12/12 13:23:38;;;;;;;0.20;0.20;;;;;;;;;;6294235;28;20075;-82
2023/12/12 13:26:38;;;;;;;0.20;0.20;;;;;;;;;;6293511;28;20071;-82
2023/12/12 13:29:38;;;;;;;0.20;0.20;;;;;;;;;;6286802;28;20024;-82
2023/12/12 13:32:42;;;;;;;0.20;0.20;;;;;;;;;;6290095;28;20024;-82
2023/12/12 13:35:43;;;;;;;0.20;0.20;;;;;;;;;;6293009;28;20165;-82
2023/12/12 13:38:43;;;;;;;0.20;0.20;;;;;;;;;;6272675;28;20449;-82
2023/12/12 13:41:44;;;;;;;0.20;0.20;;;;;;;;;;6293221;28;20029;-83
2023/12/12 13:44:44;;;;;;;0.20;0.20;;;;;;;;;;6274303;28;20028;-80
2023/12/12 13:47:45;;;;;;;0.20;0.20;;;;;;;;;;6292456;28;20024;-80
2023/12/12 13:50:46;;;;;;;0.20;0.20;;;;;;;;;;6290964;28;20095;-80
2023/12/12 13:53:46;;;;;;;0.10;0.10;;;;;;;;;;6274410;28;20075;-80
2023/12/12 13:56:46;;;;;;;0.10;0.10;;;;;;;;;;6290227;28;20028;-80
2023/12/12 13:59:47;;;;;;;0.20;0.20;;;;;;;;;;6291653;28;20086;-80
2023/12/12 14:02:47;;;;;;;0.20;0.20;;;;;;;;;;6291523;28;20375;-80
2023/12/12 14:05:47;;;;;;;0.20;0.20;;;;;;;;;;6281470;28;20101;-80
2023/12/12 14:08:47;;;;;;;0.10;0.10;;;;;;;;;;6284698;28;20023;-80
2023/12/12 14:11:48;;;;;;;0.13;0.13;;;;;;;;;;6293113;28;20048;-89
2023/12/12 14:14:48;;;;;;;0.20;0.20;;;;;;;;;;6309822;28;20024;-91
2023/12/12 14:17:49;;;;;;;0.20;0.20;;;;;;;;;;6325008;28;20020;-90
2023/12/12 14:20:49;;;;;;;0.13;0.13;;;;;;;;;;6333404;28;20008;-90
2023/12/12 14:23:50;;;;;;;0.20;0.20;;;;;;;;;;6328018;28;20034;-90
2023/12/12 14:26:50;;;;;;;0.20;0.20;;;;;;;;;;6307989;28;20007;-90
2023/12/12 14:29:50;;;;;;;0.20;0.20;;;;;;;;;;6308457;28;20008;-89
2023/12/12 14:32:51;;;;;;;0.10;0.10;;;;;;;;;;6319930;28;20032;-91
2023/12/12 14:35:51;;;;;;;0.10;0.10;;;;;;;;;;6310408;28;20039;-89
2023/12/12 14:38:51;;;;;;;0.10;0.10;;;;;;;;;;6324448;28;20032;-90
2023/12/12 14:41:52;;;;;;;0.20;0.20;;;;;;;;;;6296385;28;20037;-91
2023/12/12 14:44:52;;;;;;;0.20;0.20;;;;;;;;;;6305154;28;20019;-90
2023/12/12 14:47:53;;;;;;;0.10;0.10;;;;;;;;;;6298212;28;20077;-90
2023/12/12 14:50:53;;;;;;;0.10;0.10;;;;;;;;;;6295170;28;20020;-90
2023/12/12 14:53:53;;;;;;;0.20;0.20;;;;;;;;;;6296279;28;20024;-81
2023/12/12 14:56:53;;;;;;;0.20;0.20;;;;;;;;;;6270396;28;20059;-81
2023/12/12 14:59:54;;;;;;;0.20;0.20;;;;;;;;;;6278569;28;20484;-81
2023/12/12 15:02:54;;;;;;;0.13;0.13;;;;;;;;;;6288733;28;20012;-80
2023/12/12 15:05:54;;;;;;;0.20;0.20;;;;;;;;;;6264972;28;20486;-81
2023/12/12 15:08:55;;;;;;;0.10;0.10;;;;;;;;;;6291764;28;20028;-79
2023/12/12 15:11:55;;;;;;;0.20;0.20;;;;;;;;;;6294220;28;20021;-79
2023/12/12 15:14:55;;;;;;;0.10;0.10;;;;;;;;;;6290722;28;20259;-79
2023/12/12 15:17:55;;;;;;;0.20;0.20;;;;;;;;;;6293451;28;20035;-79
2023/12/12 15:20:56;;;;;;;0.20;0.20;;;;;;;;;;6287206;28;20030;-79
2023/12/12 15:23:56;;;;;;;0.20;0.20;;;;;;;;;;6295779;28;20056;-79
2023/12/12 15:26:57;;;;;;;0.10;0.10;;;;;;;;;;6294666;28;20389;-79
2023/12/12 15:29:57;;;;;;;0.10;0.10;;;;;;;;;;6295598;28;20021;-79
2023/12/12 15:32:58;;;;;;;0.20;0.20;;;;;;;;;;6313712;28;20024;-79
2023/12/12 15:35:58;;;;;;;0.20;0.20;;;;;;;;;;6297352;28;20020;-79
2023/12/12 15:38:58;;;;;;;0.20;0.20;;;;;;;;;;6290957;28;20017;-79
2023/12/12 15:42:00;;;;;;;0.10;0.10;;;;;;;;;;6301600;28;20470;-79
2023/12/12 15:45:00;;;;;;;0.10;0.10;;;;;;;;;;6304957;28;20600;-80
2023/12/12 15:48:00;;;;;;;0.20;0.20;;;;;;;;;;6298865;28;20016;-80
2023/12/12 15:51:01;;;;;;;0.20;0.20;;;;;;;;;;6295794;28;20047;-80
2023/12/12 15:54:02;;;;;;;0.10;0.10;;;;;;;;;;6293230;28;20024;-79
2023/12/12 15:57:03;;;;;;;0.10;0.10;;;;;;;;;;6300877;28;20107;-80
2023/12/12 16:00:08;;;;;;;0.20;0.20;;;;;;;;;;6310118;28;20056;-80
2023/12/12 16:03:12;;;;;;;0.20;0.20;;;;;;;;;;6297577;28;20586;-80
2023/12/12 16:06:13;;;;;;;0.20;0.20;;;;;;;;;;6293379;28;20404;-80
2023/12/12 16:09:14;;;;;;;0.20;0.20;;;;;;;;;;6295570;28;20023;-79
2023/12/12 16:12:14;;;;;;;0.10;0.10;;;;;;;;;;6287699;28;20131;-79
2023/12/12 16:15:15;;;;;;;0.20;0.20;;;;;;;;;;6301168;28;20255;-80
2023/12/12 16:18:15;;;;;;;0.20;0.20;;;;;;;;;;6294018;28;21411;-80
2023/12/12 16:21:16;;;;;;;0.10;0.10;;;;;;;;;;6293580;28;20032;-80
2023/12/12 16:24:16;;;;;;;0.20;0.20;;;;;;;;;;6293120;28;20009;-80
2023/12/12 16:27:16;;;;;;;0.20;0.20;;;;;;;;;;6287955;28;20025;-79
2023/12/12 16:30:17;;;;;;;0.20;0.20;;;;;;;;;;6274668;28;20033;-80
2023/12/12 16:33:17;;;;;;;0.20;0.20;;;;;;;;;;6293723;28;20047;-80
2023/12/12 16:36:21;;;;;;;0.20;0.20;;;;;;;;;;6293086;28;20024;-80
2023/12/12 16:39:21;;;;;;;0.20;0.20;;;;;;;;;;6292736;28;20025;-79
2023/12/12 16:42:23;;;;;;;0.20;0.20;;;;;;;;;;6269065;28;20482;-80
2023/12/12 16:45:24;;;;;;;0.20;0.20;;;;;;;;;;6290388;28;20028;-79
2023/12/12 16:48:24;;;;;;;0.20;0.20;;;;;;;;;;6292156;28;20028;-80
2023/12/12 16:51:24;;;;;;;0.20;0.20;;;;;;;;;;6292078;28;20173;-79
2023/12/12 16:54:24;;;;;;;0.20;0.20;;;;;;;;;;6292881;28;20107;-80
2023/12/12 16:57:25;;;;;;;0.20;0.20;;;;;;;;;;6251488;28;20052;-80
2023/12/12 17:00:25;;;;;;;0.20;0.20;;;;;;;;;;6290239;28;20068;-80
2023/12/12 17:03:25;;;;;;;0.20;0.20;;;;;;;;;;6292936;28;20031;-80
2023/12/12 17:06:25;;;;;;;0.20;0.20;;;;;;;;;;6293360;28;20020;-80
2023/12/12 17:09:26;;;;;;;0.20;0.20;;;;;;;;;;6272500;28;20012;-80
2023/12/12 17:12:26;;;;;;;0.20;0.20;;;;;;;;;;6293908;28;20370;-80
2023/12/12 17:15:26;;;;;;;0.20;0.20;;;;;;;;;;6298800;28;20027;-80
2023/12/12 17:18:27;;;;;;;0.20;0.20;;;;;;;;;;6299066;28;20037;-80
2023/12/12 17:21:27;;;;;;;0.20;0.20;;;;;;;;;;6293505;28;20491;-80
2023/12/12 17:24:27;;;;;;;0.20;0.20;;;;;;;;;;6293846;28;20021;-80
2023/12/12 17:27:28;;;;;;;0.20;0.20;;;;;;;;;;6292857;28;20048;-80
2023/12/12 17:30:28;;;;;;;0.20;0.20;;;;;;;;;;6292812;28;20071;-80
2023/12/12 17:33:28;;;;;;;0.20;0.20;;;;;;;;;;6292938;28;20021;-80
2023/12/12 17:36:28;;;;;;;0.20;0.20;;;;;;;;;;6292690;28;20016;-80
2023/12/12 17:39:29;;;;;;;0.20;0.20;;;;;;;;;;6292439;28;20024;-80
2023/12/12 17:42:29;;;;;;;0.20;0.20;;;;;;;;;;6292215;28;20028;-80
2023/12/12 17:45:31;;;;;;;0.20;0.20;;;;;;;;;;6292417;28;20013;-80
2023/12/12 17:48:32;;;;;;;0.20;0.20;;;;;;;;;;6273641;28;20482;-80
2023/12/12 17:51:32;;;;;;;0.20;0.20;;;;;;;;;;6294682;28;20071;-80
2023/12/12 17:54:32;;;;;;;0.20;0.20;;;;;;;;;;6272513;28;20498;-80
2023/12/12 17:57:32;;;;;;;0.20;0.20;;;;;;;;;;6288524;28;20392;-80
2023/12/12 18:00:33;;;;;;;0.20;0.20;;;;;;;;;;6274377;28;20433;-80
2023/12/12 18:03:33;;;;;;;0.10;0.10;;;;;;;;;;6285468;28;20610;-80